sensor_id;sensor_type;location;lat;lon;timestamp;P1;durP1;ratioP1;P2;durP2;ratioP2
70975;SDS011;58635;51.198;6.010;2023-05-10T00:01:02;8.95;;;7.90;;
70975;SDS011;58635;51.198;6.010;2023-05-10T00:03:28;9.27;;;8.07;;
70975;SDS011;58635;51.198;6.010;2023-05-10T00:05:54;9.73;;;7.85;;
70975;SDS011;58635;51.198;6.010;2023-05-10T00:08:19;9.18;;;8.20;;
70975;SDS011;58635;51.198;6.010;2023-05-10T00:10:44;9.05;;;7.93;;
70975;SDS011;58635;51.198;6.010;2023-05-10T00:13:10;9.98;;;8.70;;
70975;SDS011;58635;51.198;6.010;2023-05-10T00:15:35;9.27;;;7.80;;
70975;SDS011;58635;51.198;6.010;2023-05-10T00:18:01;10.68;;;9.57;;
70975;SDS011;58635;51.198;6.010;2023-05-10T00:20:26;11.00;;;9.40;;
70975;SDS011;58635;51.198;6.010;2023-05-10T00:22:51;9.88;;;8.65;;
70975;SDS011;58635;51.198;6.010;2023-05-10T00:25:17;10.63;;;9.43;;
70975;SDS011;58635;51.198;6.010;2023-05-10T00:27:42;11.25;;;9.45;;
70975;SDS011;58635;51.198;6.010;2023-05-10T00:30:08;10.48;;;9.38;;
70975;SDS011;58635;51.198;6.010;2023-05-10T00:32:33;9.70;;;8.70;;
70975;SDS011;58635;51.198;6.010;2023-05-10T00:34:59;9.63;;;8.50;;
70975;SDS011;58635;51.198;6.010;2023-05-10T00:37:24;9.88;;;8.38;;
70975;SDS011;58635;51.198;6.010;2023-05-10T00:39:50;8.88;;;7.50;;
70975;SDS011;58635;51.198;6.010;2023-05-10T00:42:15;8.30;;;6.65;;
70975;SDS011;58635;51.198;6.010;2023-05-10T00:44:41;8.00;;;6.68;;
70975;SDS011;58635;51.198;6.010;2023-05-10T00:47:06;8.25;;;6.97;;
70975;SDS011;58635;51.198;6.010;2023-05-10T00:49:32;7.95;;;6.20;;
70975;SDS011;58635;51.198;6.010;2023-05-10T00:51:58;8.15;;;6.30;;
70975;SDS011;58635;51.198;6.010;2023-05-10T00:54:23;7.35;;;5.28;;
70975;SDS011;58635;51.198;6.010;2023-05-10T00:56:49;6.28;;;5.32;;
70975;SDS011;58635;51.198;6.010;2023-05-10T00:59:15;6.00;;;4.43;;
70975;SDS011;58635;51.198;6.010;2023-05-10T01:01:42;5.97;;;4.72;;
70975;SDS011;58635;51.198;6.010;2023-05-10T01:04:09;6.13;;;4.90;;
70975;SDS011;58635;51.198;6.010;2023-05-10T01:06:37;7.28;;;4.05;;
70975;SDS011;58635;51.198;6.010;2023-05-10T01:09:02;5.93;;;4.25;;
70975;SDS011;58635;51.198;6.010;2023-05-10T01:11:28;5.50;;;4.03;;
70975;SDS011;58635;51.198;6.010;2023-05-10T01:13:56;6.60;;;4.25;;
70975;SDS011;58635;51.198;6.010;2023-05-10T01:16:23;7.07;;;5.22;;
70975;SDS011;58635;51.198;6.010;2023-05-10T01:18:49;5.72;;;5.07;;
70975;SDS011;58635;51.198;6.010;2023-05-10T01:29:11;8.73;;;7.78;;
70975;SDS011;58635;51.198;6.010;2023-05-10T01:32:07;10.05;;;8.60;;
70975;SDS011;58635;51.198;6.010;2023-05-10T01:34:46;10.45;;;9.23;;
70975;SDS011;58635;51.198;6.010;2023-05-10T01:37:32;11.68;;;9.18;;
70975;SDS011;58635;51.198;6.010;2023-05-10T01:42:46;10.48;;;8.52;;
70975;SDS011;58635;51.198;6.010;2023-05-10T01:50:27;13.75;;;10.80;;
70975;SDS011;58635;51.198;6.010;2023-05-10T01:52:55;12.43;;;10.57;;
70975;SDS011;58635;51.198;6.010;2023-05-10T01:55:24;13.75;;;10.18;;
70975;SDS011;58635;51.198;6.010;2023-05-10T01:57:53;12.40;;;10.52;;
70975;SDS011;58635;51.198;6.010;2023-05-10T02:00:25;14.80;;;11.57;;
70975;SDS011;58635;51.198;6.010;2023-05-10T02:02:52;14.05;;;10.88;;
70975;SDS011;58635;51.198;6.010;2023-05-10T02:05:19;14.73;;;11.48;;
70975;SDS011;58635;51.198;6.010;2023-05-10T02:07:46;14.30;;;11.98;;
70975;SDS011;58635;51.198;6.010;2023-05-10T02:10:12;15.05;;;11.63;;
70975;SDS011;58635;51.198;6.010;2023-05-10T02:12:40;14.65;;;11.80;;
70975;SDS011;58635;51.198;6.010;2023-05-10T02:15:08;14.68;;;11.63;;
70975;SDS011;58635;51.198;6.010;2023-05-10T02:17:37;15.82;;;12.48;;
70975;SDS011;58635;51.198;6.010;2023-05-10T02:20:04;15.15;;;11.93;;
70975;SDS011;58635;51.198;6.010;2023-05-10T02:22:31;15.15;;;12.52;;
70975;SDS011;58635;51.198;6.010;2023-05-10T02:24:58;15.07;;;12.05;;
70975;SDS011;58635;51.198;6.010;2023-05-10T02:27:25;15.60;;;11.90;;
70975;SDS011;58635;51.198;6.010;2023-05-10T02:29:52;13.95;;;11.68;;
70975;SDS011;58635;51.198;6.010;2023-05-10T02:32:19;18.30;;;13.68;;
70975;SDS011;58635;51.198;6.010;2023-05-10T02:34:47;16.17;;;13.00;;
70975;SDS011;58635;51.198;6.010;2023-05-10T02:37:16;16.17;;;12.82;;
70975;SDS011;58635;51.198;6.010;2023-05-10T02:39:46;18.80;;;14.15;;
70975;SDS011;58635;51.198;6.010;2023-05-10T02:42:13;17.00;;;14.13;;
70975;SDS011;58635;51.198;6.010;2023-05-10T02:44:42;21.88;;;15.05;;
70975;SDS011;58635;51.198;6.010;2023-05-10T02:47:10;18.35;;;14.63;;
70975;SDS011;58635;51.198;6.010;2023-05-10T02:49:36;21.40;;;15.88;;
70975;SDS011;58635;51.198;6.010;2023-05-10T02:52:01;22.20;;;16.65;;
70975;SDS011;58635;51.198;6.010;2023-05-10T02:54:32;23.25;;;17.90;;
70975;SDS011;58635;51.198;6.010;2023-05-10T02:57:04;21.35;;;17.23;;
70975;SDS011;58635;51.198;6.010;2023-05-10T02:59:30;21.33;;;16.85;;
70975;SDS011;58635;51.198;6.010;2023-05-10T03:01:57;22.50;;;17.45;;
70975;SDS011;58635;51.198;6.010;2023-05-10T03:04:27;21.70;;;16.45;;
70975;SDS011;58635;51.198;6.010;2023-05-10T03:06:52;21.92;;;16.95;;
70975;SDS011;58635;51.198;6.010;2023-05-10T03:09:18;19.63;;;15.63;;
70975;SDS011;58635;51.198;6.010;2023-05-10T03:12:26;20.13;;;15.45;;
70975;SDS011;58635;51.198;6.010;2023-05-10T03:14:53;19.27;;;14.93;;
70975;SDS011;58635;51.198;6.010;2023-05-10T03:20:22;17.90;;;13.10;;
70975;SDS011;58635;51.198;6.010;2023-05-10T03:23:00;19.85;;;13.95;;
70975;SDS011;58635;51.198;6.010;2023-05-10T03:25:33;17.05;;;13.00;;
70975;SDS011;58635;51.198;6.010;2023-05-10T03:27:59;16.55;;;12.48;;
70975;SDS011;58635;51.198;6.010;2023-05-10T03:30:26;17.85;;;12.88;;
70975;SDS011;58635;51.198;6.010;2023-05-10T03:32:52;17.15;;;11.50;;
70975;SDS011;58635;51.198;6.010;2023-05-10T03:35:18;15.88;;;12.02;;
70975;SDS011;58635;51.198;6.010;2023-05-10T03:37:43;18.23;;;11.57;;
70975;SDS011;58635;51.198;6.010;2023-05-10T03:40:09;15.18;;;10.48;;
70975;SDS011;58635;51.198;6.010;2023-05-10T03:42:34;17.38;;;11.07;;
70975;SDS011;58635;51.198;6.010;2023-05-10T03:45:00;16.40;;;10.95;;
70975;SDS011;58635;51.198;6.010;2023-05-10T03:47:25;15.10;;;10.80;;
70975;SDS011;58635;51.198;6.010;2023-05-10T03:49:50;14.18;;;11.20;;
70975;SDS011;58635;51.198;6.010;2023-05-10T03:52:16;19.63;;;11.52;;
70975;SDS011;58635;51.198;6.010;2023-05-10T03:54:41;15.07;;;10.13;;
70975;SDS011;58635;51.198;6.010;2023-05-10T03:57:07;17.85;;;11.95;;
70975;SDS011;58635;51.198;6.010;2023-05-10T03:59:33;17.17;;;12.25;;
70975;SDS011;58635;51.198;6.010;2023-05-10T04:01:58;19.83;;;13.02;;
70975;SDS011;58635;51.198;6.010;2023-05-10T04:04:24;18.92;;;12.73;;
70975;SDS011;58635;51.198;6.010;2023-05-10T04:06:49;18.65;;;12.90;;
70975;SDS011;58635;51.198;6.010;2023-05-10T04:09:15;17.95;;;12.77;;
70975;SDS011;58635;51.198;6.010;2023-05-10T04:11:41;19.13;;;12.50;;
70975;SDS011;58635;51.198;6.010;2023-05-10T04:14:07;18.33;;;13.32;;
70975;SDS011;58635;51.198;6.010;2023-05-10T04:16:32;20.92;;;13.90;;
70975;SDS011;58635;51.198;6.010;2023-05-10T04:18:58;18.20;;;13.40;;
70975;SDS011;58635;51.198;6.010;2023-05-10T04:21:24;20.63;;;13.93;;
70975;SDS011;58635;51.198;6.010;2023-05-10T04:23:50;22.35;;;14.60;;
70975;SDS011;58635;51.198;6.010;2023-05-10T04:26:15;18.67;;;13.18;;
70975;SDS011;58635;51.198;6.010;2023-05-10T04:28:41;20.20;;;13.18;;
70975;SDS011;58635;51.198;6.010;2023-05-10T04:31:07;24.70;;;13.55;;
70975;SDS011;58635;51.198;6.010;2023-05-10T04:33:33;20.65;;;13.98;;
70975;SDS011;58635;51.198;6.010;2023-05-10T04:35:59;22.70;;;14.27;;
70975;SDS011;58635;51.198;6.010;2023-05-10T04:38:25;21.77;;;14.57;;
70975;SDS011;58635;51.198;6.010;2023-05-10T04:40:52;22.23;;;14.40;;
70975;SDS011;58635;51.198;6.010;2023-05-10T04:43:17;25.42;;;15.93;;
70975;SDS011;58635;51.198;6.010;2023-05-10T04:45:43;23.90;;;15.40;;
70975;SDS011;58635;51.198;6.010;2023-05-10T04:48:09;26.55;;;15.63;;
70975;SDS011;58635;51.198;6.010;2023-05-10T04:50:34;24.23;;;15.98;;
70975;SDS011;58635;51.198;6.010;2023-05-10T04:53:00;26.40;;;17.33;;
70975;SDS011;58635;51.198;6.010;2023-05-10T04:55:25;27.95;;;16.95;;
70975;SDS011;58635;51.198;6.010;2023-05-10T04:57:52;27.70;;;17.55;;
70975;SDS011;58635;51.198;6.010;2023-05-10T05:00:18;27.55;;;17.55;;
70975;SDS011;58635;51.198;6.010;2023-05-10T05:02:44;30.20;;;17.70;;
70975;SDS011;58635;51.198;6.010;2023-05-10T05:05:13;28.77;;;17.42;;
70975;SDS011;58635;51.198;6.010;2023-05-10T05:07:38;27.67;;;17.02;;
70975;SDS011;58635;51.198;6.010;2023-05-10T05:10:07;25.35;;;16.88;;
70975;SDS011;58635;51.198;6.010;2023-05-10T05:12:34;24.08;;;17.88;;
70975;SDS011;58635;51.198;6.010;2023-05-10T05:14:59;26.73;;;17.50;;
70975;SDS011;58635;51.198;6.010;2023-05-10T05:17:26;27.15;;;16.63;;
70975;SDS011;58635;51.198;6.010;2023-05-10T05:19:51;26.10;;;16.58;;
70975;SDS011;58635;51.198;6.010;2023-05-10T05:22:16;30.70;;;18.10;;
70975;SDS011;58635;51.198;6.010;2023-05-10T05:24:42;27.27;;;16.35;;
70975;SDS011;58635;51.198;6.010;2023-05-10T05:27:07;24.17;;;16.60;;
70975;SDS011;58635;51.198;6.010;2023-05-10T05:29:33;25.02;;;16.88;;
70975;SDS011;58635;51.198;6.010;2023-05-10T05:31:58;27.38;;;16.83;;
70975;SDS011;58635;51.198;6.010;2023-05-10T05:34:24;26.95;;;17.05;;
70975;SDS011;58635;51.198;6.010;2023-05-10T05:36:50;27.23;;;17.25;;
70975;SDS011;58635;51.198;6.010;2023-05-10T05:39:16;30.27;;;19.33;;
70975;SDS011;58635;51.198;6.010;2023-05-10T05:41:42;23.55;;;17.48;;
70975;SDS011;58635;51.198;6.010;2023-05-10T05:44:07;26.33;;;17.85;;
70975;SDS011;58635;51.198;6.010;2023-05-10T05:46:33;24.90;;;17.77;;
70975;SDS011;58635;51.198;6.010;2023-05-10T05:48:58;26.25;;;18.95;;
70975;SDS011;58635;51.198;6.010;2023-05-10T05:51:23;27.27;;;18.33;;
70975;SDS011;58635;51.198;6.010;2023-05-10T05:53:49;22.23;;;17.95;;
70975;SDS011;58635;51.198;6.010;2023-05-10T05:56:14;25.40;;;17.30;;
70975;SDS011;58635;51.198;6.010;2023-05-10T05:58:39;24.75;;;16.98;;
70975;SDS011;58635;51.198;6.010;2023-05-10T06:01:05;23.50;;;16.90;;
70975;SDS011;58635;51.198;6.010;2023-05-10T06:03:30;25.33;;;17.45;;
70975;SDS011;58635;51.198;6.010;2023-05-10T06:05:55;22.65;;;16.48;;
70975;SDS011;58635;51.198;6.010;2023-05-10T06:08:21;23.25;;;16.10;;
70975;SDS011;58635;51.198;6.010;2023-05-10T06:10:47;25.65;;;16.10;;
70975;SDS011;58635;51.198;6.010;2023-05-10T06:13:12;26.35;;;17.17;;
70975;SDS011;58635;51.198;6.010;2023-05-10T06:15:38;21.58;;;16.73;;
70975;SDS011;58635;51.198;6.010;2023-05-10T06:18:03;25.70;;;16.20;;
70975;SDS011;58635;51.198;6.010;2023-05-10T06:20:29;24.98;;;17.15;;
70975;SDS011;58635;51.198;6.010;2023-05-10T06:22:56;23.73;;;17.27;;
70975;SDS011;58635;51.198;6.010;2023-05-10T06:25:22;25.98;;;17.95;;
70975;SDS011;58635;51.198;6.010;2023-05-10T06:27:48;23.95;;;18.08;;
70975;SDS011;58635;51.198;6.010;2023-05-10T06:30:13;25.17;;;18.38;;
70975;SDS011;58635;51.198;6.010;2023-05-10T06:32:40;28.75;;;19.58;;
70975;SDS011;58635;51.198;6.010;2023-05-10T06:35:06;31.48;;;22.33;;
70975;SDS011;58635;51.198;6.010;2023-05-10T06:37:32;29.60;;;21.60;;
70975;SDS011;58635;51.198;6.010;2023-05-10T06:39:57;30.35;;;22.20;;
70975;SDS011;58635;51.198;6.010;2023-05-10T06:42:22;31.35;;;21.05;;
70975;SDS011;58635;51.198;6.010;2023-05-10T06:44:50;31.33;;;21.33;;
70975;SDS011;58635;51.198;6.010;2023-05-10T06:47:15;26.90;;;19.25;;
70975;SDS011;58635;51.198;6.010;2023-05-10T06:49:41;36.22;;;24.30;;
70975;SDS011;58635;51.198;6.010;2023-05-10T06:52:06;32.40;;;23.20;;
70975;SDS011;58635;51.198;6.010;2023-05-10T06:54:31;28.48;;;22.10;;
70975;SDS011;58635;51.198;6.010;2023-05-10T06:56:57;31.95;;;22.30;;
70975;SDS011;58635;51.198;6.010;2023-05-10T06:59:22;33.38;;;22.13;;
70975;SDS011;58635;51.198;6.010;2023-05-10T07:01:49;30.23;;;21.77;;
70975;SDS011;58635;51.198;6.010;2023-05-10T07:04:14;26.15;;;18.58;;
70975;SDS011;58635;51.198;6.010;2023-05-10T07:06:39;23.95;;;17.98;;
70975;SDS011;58635;51.198;6.010;2023-05-10T07:09:05;21.95;;;16.98;;
70975;SDS011;58635;51.198;6.010;2023-05-10T07:11:30;25.42;;;17.70;;
70975;SDS011;58635;51.198;6.010;2023-05-10T07:13:56;22.52;;;16.15;;
70975;SDS011;58635;51.198;6.010;2023-05-10T07:16:21;24.77;;;18.75;;
70975;SDS011;58635;51.198;6.010;2023-05-10T07:18:47;24.38;;;17.40;;
70975;SDS011;58635;51.198;6.010;2023-05-10T07:21:12;22.70;;;16.10;;
70975;SDS011;58635;51.198;6.010;2023-05-10T07:23:38;20.52;;;15.45;;
70975;SDS011;58635;51.198;6.010;2023-05-10T07:26:03;21.65;;;15.35;;
70975;SDS011;58635;51.198;6.010;2023-05-10T07:28:30;19.77;;;13.88;;
70975;SDS011;58635;51.198;6.010;2023-05-10T07:30:55;20.50;;;14.35;;
70975;SDS011;58635;51.198;6.010;2023-05-10T07:33:20;19.92;;;14.68;;
70975;SDS011;58635;51.198;6.010;2023-05-10T07:35:46;18.40;;;14.15;;
70975;SDS011;58635;51.198;6.010;2023-05-10T07:38:11;19.08;;;14.02;;
70975;SDS011;58635;51.198;6.010;2023-05-10T07:40:37;18.27;;;13.98;;
70975;SDS011;58635;51.198;6.010;2023-05-10T07:43:03;21.85;;;14.48;;
70975;SDS011;58635;51.198;6.010;2023-05-10T07:45:28;19.65;;;14.27;;
70975;SDS011;58635;51.198;6.010;2023-05-10T07:47:54;17.80;;;12.95;;
70975;SDS011;58635;51.198;6.010;2023-05-10T07:50:19;18.85;;;13.35;;
70975;SDS011;58635;51.198;6.010;2023-05-10T07:52:46;17.48;;;13.75;;
70975;SDS011;58635;51.198;6.010;2023-05-10T07:55:11;16.67;;;12.52;;
70975;SDS011;58635;51.198;6.010;2023-05-10T07:57:37;16.85;;;12.50;;
70975;SDS011;58635;51.198;6.010;2023-05-10T08:00:03;15.90;;;11.27;;
70975;SDS011;58635;51.198;6.010;2023-05-10T08:02:28;15.68;;;11.90;;
70975;SDS011;58635;51.198;6.010;2023-05-10T08:04:54;17.15;;;13.43;;
70975;SDS011;58635;51.198;6.010;2023-05-10T08:07:20;19.75;;;14.25;;
70975;SDS011;58635;51.198;6.010;2023-05-10T08:09:46;19.70;;;14.50;;
70975;SDS011;58635;51.198;6.010;2023-05-10T08:12:11;22.27;;;14.90;;
70975;SDS011;58635;51.198;6.010;2023-05-10T08:14:37;20.10;;;14.20;;
70975;SDS011;58635;51.198;6.010;2023-05-10T08:17:03;22.40;;;15.55;;
70975;SDS011;58635;51.198;6.010;2023-05-10T08:19:29;20.90;;;15.50;;
70975;SDS011;58635;51.198;6.010;2023-05-10T08:21:54;25.55;;;17.70;;
70975;SDS011;58635;51.198;6.010;2023-05-10T08:24:20;21.95;;;17.00;;
70975;SDS011;58635;51.198;6.010;2023-05-10T08:26:46;27.10;;;18.88;;
70975;SDS011;58635;51.198;6.010;2023-05-10T08:29:12;22.05;;;17.40;;
70975;SDS011;58635;51.198;6.010;2023-05-10T08:31:38;22.77;;;16.52;;
70975;SDS011;58635;51.198;6.010;2023-05-10T08:34:04;23.15;;;16.95;;
70975;SDS011;58635;51.198;6.010;2023-05-10T08:36:29;22.50;;;16.65;;
70975;SDS011;58635;51.198;6.010;2023-05-10T08:38:55;21.40;;;16.80;;
70975;SDS011;58635;51.198;6.010;2023-05-10T08:41:21;23.13;;;15.88;;
70975;SDS011;58635;51.198;6.010;2023-05-10T08:43:49;23.80;;;17.40;;
70975;SDS011;58635;51.198;6.010;2023-05-10T08:46:16;23.15;;;16.88;;
70975;SDS011;58635;51.198;6.010;2023-05-10T08:48:43;23.50;;;16.60;;
70975;SDS011;58635;51.198;6.010;2023-05-10T08:51:11;21.20;;;16.35;;
70975;SDS011;58635;51.198;6.010;2023-05-10T08:53:39;23.95;;;16.27;;
70975;SDS011;58635;51.198;6.010;2023-05-10T08:56:04;23.08;;;16.70;;
70975;SDS011;58635;51.198;6.010;2023-05-10T08:58:30;24.27;;;16.52;;
70975;SDS011;58635;51.198;6.010;2023-05-10T09:00:57;21.13;;;15.68;;
70975;SDS011;58635;51.198;6.010;2023-05-10T09:03:25;18.73;;;15.23;;
70975;SDS011;58635;51.198;6.010;2023-05-10T09:05:51;21.25;;;15.95;;
70975;SDS011;58635;51.198;6.010;2023-05-10T09:08:17;26.60;;;16.55;;
70975;SDS011;58635;51.198;6.010;2023-05-10T09:10:43;21.80;;;17.20;;
70975;SDS011;58635;51.198;6.010;2023-05-10T09:13:12;23.05;;;15.80;;
70975;SDS011;58635;51.198;6.010;2023-05-10T09:15:43;24.63;;;16.77;;
70975;SDS011;58635;51.198;6.010;2023-05-10T09:18:09;23.00;;;17.10;;
70975;SDS011;58635;51.198;6.010;2023-05-10T09:20:35;22.33;;;16.50;;
70975;SDS011;58635;51.198;6.010;2023-05-10T09:23:00;20.67;;;16.13;;
70975;SDS011;58635;51.198;6.010;2023-05-10T09:25:26;20.08;;;15.45;;
70975;SDS011;58635;51.198;6.010;2023-05-10T09:27:52;23.40;;;15.60;;
70975;SDS011;58635;51.198;6.010;2023-05-10T09:30:24;18.63;;;14.93;;
70975;SDS011;58635;51.198;6.010;2023-05-10T09:32:51;21.25;;;14.98;;
70975;SDS011;58635;51.198;6.010;2023-05-10T09:35:19;18.15;;;13.70;;
70975;SDS011;58635;51.198;6.010;2023-05-10T09:37:47;17.65;;;13.20;;
70975;SDS011;58635;51.198;6.010;2023-05-10T09:40:14;17.33;;;13.02;;
70975;SDS011;58635;51.198;6.010;2023-05-10T09:42:51;17.27;;;13.32;;
70975;SDS011;58635;51.198;6.010;2023-05-10T09:45:18;15.40;;;12.73;;
70975;SDS011;58635;51.198;6.010;2023-05-10T09:47:44;16.00;;;13.48;;
70975;SDS011;58635;51.198;6.010;2023-05-10T09:50:10;17.35;;;12.75;;
70975;SDS011;58635;51.198;6.010;2023-05-10T09:55:13;17.15;;;13.20;;
70975;SDS011;58635;51.198;6.010;2023-05-10T09:57:38;18.77;;;14.93;;
70975;SDS011;58635;51.198;6.010;2023-05-10T10:00:09;23.65;;;17.25;;
70975;SDS011;58635;51.198;6.010;2023-05-10T10:02:35;24.52;;;17.65;;
70975;SDS011;58635;51.198;6.010;2023-05-10T10:05:01;22.83;;;17.85;;
70975;SDS011;58635;51.198;6.010;2023-05-10T10:07:28;25.30;;;17.77;;
70975;SDS011;58635;51.198;6.010;2023-05-10T10:09:54;22.35;;;17.45;;
70975;SDS011;58635;51.198;6.010;2023-05-10T10:12:20;24.17;;;17.42;;
70975;SDS011;58635;51.198;6.010;2023-05-10T10:14:46;22.23;;;17.58;;
70975;SDS011;58635;51.198;6.010;2023-05-10T10:17:16;24.98;;;18.45;;
70975;SDS011;58635;51.198;6.010;2023-05-10T10:19:43;24.75;;;19.38;;
70975;SDS011;58635;51.198;6.010;2023-05-10T10:22:08;24.73;;;18.92;;
70975;SDS011;58635;51.198;6.010;2023-05-10T10:24:36;24.90;;;18.27;;
70975;SDS011;58635;51.198;6.010;2023-05-10T10:27:07;24.38;;;19.27;;
70975;SDS011;58635;51.198;6.010;2023-05-10T10:29:41;27.88;;;19.67;;
70975;SDS011;58635;51.198;6.010;2023-05-10T10:32:35;23.42;;;19.02;;
70975;SDS011;58635;51.198;6.010;2023-05-10T10:35:15;23.50;;;18.25;;
70975;SDS011;58635;51.198;6.010;2023-05-10T10:37:42;26.65;;;19.52;;
70975;SDS011;58635;51.198;6.010;2023-05-10T10:42:53;21.35;;;17.10;;
70975;SDS011;58635;51.198;6.010;2023-05-10T10:45:20;20.90;;;17.13;;
70975;SDS011;58635;51.198;6.010;2023-05-10T10:47:46;21.50;;;16.27;;
70975;SDS011;58635;51.198;6.010;2023-05-10T10:50:11;22.60;;;16.48;;
70975;SDS011;58635;51.198;6.010;2023-05-10T10:52:44;21.35;;;16.20;;
70975;SDS011;58635;51.198;6.010;2023-05-10T10:55:17;21.30;;;16.60;;
70975;SDS011;58635;51.198;6.010;2023-05-10T10:57:54;20.88;;;15.68;;
70975;SDS011;58635;51.198;6.010;2023-05-10T11:08:01;21.02;;;15.85;;
70975;SDS011;58635;51.198;6.010;2023-05-10T11:10:38;20.13;;;15.50;;
70975;SDS011;58635;51.198;6.010;2023-05-10T11:13:08;21.45;;;15.55;;
70975;SDS011;58635;51.198;6.010;2023-05-10T11:15:35;19.00;;;14.95;;
70975;SDS011;58635;51.198;6.010;2023-05-10T11:21:06;20.10;;;14.15;;
70975;SDS011;58635;51.198;6.010;2023-05-10T11:26:08;15.88;;;14.18;;
70975;SDS011;58635;51.198;6.010;2023-05-10T11:28:43;15.32;;;13.10;;
70975;SDS011;58635;51.198;6.010;2023-05-10T11:31:10;16.20;;;12.57;;
70975;SDS011;58635;51.198;6.010;2023-05-10T11:33:48;16.45;;;13.10;;
70975;SDS011;58635;51.198;6.010;2023-05-10T11:36:14;18.15;;;14.55;;
70975;SDS011;58635;51.198;6.010;2023-05-10T11:38:41;16.15;;;13.70;;
70975;SDS011;58635;51.198;6.010;2023-05-10T11:41:10;17.70;;;12.88;;
70975;SDS011;58635;51.198;6.010;2023-05-10T11:43:38;17.52;;;13.77;;
70975;SDS011;58635;51.198;6.010;2023-05-10T11:46:13;19.10;;;13.20;;
70975;SDS011;58635;51.198;6.010;2023-05-10T11:48:39;15.27;;;12.52;;
70975;SDS011;58635;51.198;6.010;2023-05-10T11:51:05;15.05;;;11.95;;
70975;SDS011;58635;51.198;6.010;2023-05-10T11:53:32;14.85;;;12.68;;
70975;SDS011;58635;51.198;6.010;2023-05-10T11:56:08;13.32;;;11.95;;
70975;SDS011;58635;51.198;6.010;2023-05-10T11:58:35;13.70;;;12.05;;
70975;SDS011;58635;51.198;6.010;2023-05-10T12:01:02;13.10;;;11.07;;
70975;SDS011;58635;51.198;6.010;2023-05-10T12:03:29;15.10;;;10.85;;
70975;SDS011;58635;51.198;6.010;2023-05-10T12:05:55;11.88;;;9.68;;
70975;SDS011;58635;51.198;6.010;2023-05-10T12:08:22;10.55;;;9.32;;
70975;SDS011;58635;51.198;6.010;2023-05-10T12:10:49;11.80;;;9.40;;
70975;SDS011;58635;51.198;6.010;2023-05-10T12:13:15;11.85;;;9.10;;
70975;SDS011;58635;51.198;6.010;2023-05-10T12:15:41;10.00;;;8.43;;
70975;SDS011;58635;51.198;6.010;2023-05-10T12:18:11;10.85;;;8.95;;
70975;SDS011;58635;51.198;6.010;2023-05-10T12:20:37;13.13;;;9.00;;
70975;SDS011;58635;51.198;6.010;2023-05-10T12:23:04;11.90;;;8.85;;
70975;SDS011;58635;51.198;6.010;2023-05-10T12:25:31;10.13;;;8.73;;
70975;SDS011;58635;51.198;6.010;2023-05-10T12:27:58;9.75;;;8.27;;
70975;SDS011;58635;51.198;6.010;2023-05-10T12:30:26;8.38;;;7.35;;
70975;SDS011;58635;51.198;6.010;2023-05-10T12:32:53;10.35;;;8.77;;
70975;SDS011;58635;51.198;6.010;2023-05-10T12:35:19;9.75;;;8.75;;
70975;SDS011;58635;51.198;6.010;2023-05-10T12:37:49;10.05;;;8.63;;
70975;SDS011;58635;51.198;6.010;2023-05-10T12:40:15;12.38;;;8.48;;
70975;SDS011;58635;51.198;6.010;2023-05-10T12:42:41;9.57;;;7.70;;
70975;SDS011;58635;51.198;6.010;2023-05-10T12:45:07;8.07;;;6.88;;
70975;SDS011;58635;51.198;6.010;2023-05-10T12:47:33;9.05;;;7.35;;
70975;SDS011;58635;51.198;6.010;2023-05-10T12:49:59;10.68;;;7.10;;
70975;SDS011;58635;51.198;6.010;2023-05-10T12:52:26;8.70;;;7.32;;
70975;SDS011;58635;51.198;6.010;2023-05-10T12:54:52;9.63;;;7.47;;
70975;SDS011;58635;51.198;6.010;2023-05-10T12:57:18;11.65;;;8.18;;
70975;SDS011;58635;51.198;6.010;2023-05-10T12:59:45;11.73;;;7.82;;
70975;SDS011;58635;51.198;6.010;2023-05-10T13:02:10;10.43;;;8.88;;
70975;SDS011;58635;51.198;6.010;2023-05-10T13:04:36;11.73;;;8.82;;
70975;SDS011;58635;51.198;6.010;2023-05-10T13:07:05;12.38;;;9.20;;
70975;SDS011;58635;51.198;6.010;2023-05-10T13:09:31;9.63;;;8.18;;
70975;SDS011;58635;51.198;6.010;2023-05-10T13:11:56;9.70;;;8.25;;
70975;SDS011;58635;51.198;6.010;2023-05-10T13:14:22;12.95;;;8.90;;
70975;SDS011;58635;51.198;6.010;2023-05-10T13:16:47;10.85;;;8.60;;
70975;SDS011;58635;51.198;6.010;2023-05-10T13:19:16;9.98;;;7.30;;
70975;SDS011;58635;51.198;6.010;2023-05-10T13:21:42;9.63;;;7.47;;
70975;SDS011;58635;51.198;6.010;2023-05-10T13:24:10;10.48;;;8.13;;
70975;SDS011;58635;51.198;6.010;2023-05-10T13:26:36;11.15;;;8.02;;
70975;SDS011;58635;51.198;6.010;2023-05-10T13:29:02;11.43;;;7.53;;
70975;SDS011;58635;51.198;6.010;2023-05-10T13:31:28;11.93;;;7.28;;
70975;SDS011;58635;51.198;6.010;2023-05-10T13:33:53;9.15;;;7.30;;
70975;SDS011;58635;51.198;6.010;2023-05-10T13:36:19;9.57;;;7.00;;
70975;SDS011;58635;51.198;6.010;2023-05-10T13:38:45;8.73;;;6.97;;
70975;SDS011;58635;51.198;6.010;2023-05-10T13:41:10;8.52;;;7.43;;
70975;SDS011;58635;51.198;6.010;2023-05-10T13:43:36;10.05;;;7.45;;
70975;SDS011;58635;51.198;6.010;2023-05-10T13:46:01;8.52;;;6.40;;
70975;SDS011;58635;51.198;6.010;2023-05-10T13:48:27;9.55;;;7.43;;
70975;SDS011;58635;51.198;6.010;2023-05-10T13:50:53;8.57;;;7.28;;
70975;SDS011;58635;51.198;6.010;2023-05-10T13:53:19;9.00;;;7.35;;
70975;SDS011;58635;51.198;6.010;2023-05-10T13:55:44;8.82;;;6.90;;
70975;SDS011;58635;51.198;6.010;2023-05-10T13:58:09;8.57;;;7.28;;
70975;SDS011;58635;51.198;6.010;2023-05-10T14:00:35;11.65;;;7.32;;
70975;SDS011;58635;51.198;6.010;2023-05-10T14:03:01;9.15;;;6.72;;
70975;SDS011;58635;51.198;6.010;2023-05-10T14:05:26;8.65;;;6.50;;
70975;SDS011;58635;51.198;6.010;2023-05-10T14:07:51;8.30;;;6.97;;
70975;SDS011;58635;51.198;6.010;2023-05-10T14:10:17;12.07;;;6.68;;
70975;SDS011;58635;51.198;6.010;2023-05-10T14:12:42;9.13;;;6.13;;
70975;SDS011;58635;51.198;6.010;2023-05-10T14:15:08;8.95;;;7.10;;
70975;SDS011;58635;51.198;6.010;2023-05-10T14:17:35;7.38;;;6.05;;
70975;SDS011;58635;51.198;6.010;2023-05-10T14:20:01;8.30;;;6.68;;
70975;SDS011;58635;51.198;6.010;2023-05-10T14:22:27;9.43;;;6.72;;
70975;SDS011;58635;51.198;6.010;2023-05-10T14:24:52;9.48;;;6.38;;
70975;SDS011;58635;51.198;6.010;2023-05-10T14:27:17;9.55;;;7.00;;
70975;SDS011;58635;51.198;6.010;2023-05-10T14:29:43;8.35;;;6.15;;
70975;SDS011;58635;51.198;6.010;2023-05-10T14:32:08;10.10;;;6.65;;
70975;SDS011;58635;51.198;6.010;2023-05-10T14:34:34;8.43;;;6.80;;
70975;SDS011;58635;51.198;6.010;2023-05-10T14:36:59;10.02;;;6.78;;
70975;SDS011;58635;51.198;6.010;2023-05-10T14:39:25;9.05;;;6.38;;
70975;SDS011;58635;51.198;6.010;2023-05-10T14:41:50;7.88;;;5.95;;
70975;SDS011;58635;51.198;6.010;2023-05-10T14:44:17;8.35;;;6.18;;
70975;SDS011;58635;51.198;6.010;2023-05-10T14:46:42;7.88;;;5.30;;
70975;SDS011;58635;51.198;6.010;2023-05-10T14:49:09;7.82;;;5.72;;
70975;SDS011;58635;51.198;6.010;2023-05-10T14:51:34;8.02;;;6.13;;
70975;SDS011;58635;51.198;6.010;2023-05-10T14:54:01;8.02;;;6.07;;
70975;SDS011;58635;51.198;6.010;2023-05-10T14:56:27;8.90;;;5.82;;
70975;SDS011;58635;51.198;6.010;2023-05-10T14:58:52;8.40;;;5.65;;
70975;SDS011;58635;51.198;6.010;2023-05-10T15:01:18;7.88;;;5.53;;
70975;SDS011;58635;51.198;6.010;2023-05-10T15:03:44;7.90;;;5.43;;